createdAt,value
2018-07-23T00:02:03.597Z,100355.58
2018-07-23T00:04:33.594Z,100343.31
2018-07-23T00:07:03.872Z,100347.27
2018-07-23T00:09:33.909Z,100341.54
2018-07-23T00:12:03.991Z,100333.56
2018-07-23T00:14:34.147Z,100328.59
2018-07-23T00:17:04.221Z,100331.15
2018-07-23T00:19:34.577Z,100329.74
2018-07-23T00:22:04.509Z,100334.19
2018-07-23T00:24:34.608Z,100334.97
2018-07-23T00:27:04.588Z,100332.36
2018-07-23T00:29:34.603Z,100334.19
2018-07-23T00:32:04.545Z,100328.27
2018-07-23T00:34:34.581Z,100324.77
2018-07-23T00:37:04.548Z,100330.03
2018-07-23T00:39:35.355Z,100329.21
2018-07-23T00:42:05.857Z,100330.27
2018-07-23T00:44:35.827Z,100335.46
2018-07-23T00:47:06.253Z,100338.80
2018-07-23T00:49:36.412Z,100327.84
2018-07-23T00:52:06.732Z,100337.46
2018-07-23T00:54:36.698Z,100319.40
2018-07-23T00:57:07.004Z,100313.95
2018-07-23T00:59:37.009Z,100309.38
2018-07-23T01:02:06.959Z,100310.16
2018-07-23T01:04:36.867Z,100299.06
2018-07-23T01:07:06.926Z,100295.80
2018-07-23T01:09:37.441Z,100308.78
2018-07-23T01:12:07.508Z,100306.90
2018-07-23T01:14:37.874Z,100306.14
2018-07-23T01:17:07.905Z,100308.28
2018-07-23T01:19:38.197Z,100316.81
2018-07-23T01:22:08.069Z,100312.27
2018-07-23T01:24:38.101Z,100313.38
2018-07-23T01:27:08.228Z,100317.29
2018-07-23T01:29:38.301Z,100321.27
2018-07-23T01:32:08.373Z,100321.33
2018-07-23T01:34:38.613Z,100322.44
2018-07-23T01:37:08.476Z,100320.28
2018-07-23T01:39:38.260Z,100323.82
2018-07-23T01:42:08.114Z,100311.81
2018-07-23T01:44:38.333Z,100308.39
2018-07-23T01:47:09.480Z,100303.72
2018-07-23T01:49:39.504Z,100309.50
2018-07-23T01:52:09.570Z,100310.25
2018-07-23T01:54:39.412Z,100304.00
2018-07-23T01:57:09.473Z,100298.34
2018-07-23T01:59:39.357Z,100292.06
2018-07-23T02:02:09.432Z,100288.20
2018-07-23T02:04:39.489Z,100293.14
2018-07-23T02:07:09.564Z,100299.23
2018-07-23T02:09:39.686Z,100299.28
2018-07-23T02:12:09.633Z,100303.14
2018-07-23T02:14:40.115Z,100302.00
2018-07-23T02:17:10.723Z,100297.75
2018-07-23T02:19:40.949Z,100288.70
2018-07-23T02:22:11.159Z,100285.52
2018-07-23T02:24:41.123Z,100283.96
2018-07-23T02:27:11.215Z,100279.65
2018-07-23T02:29:41.237Z,100285.11
2018-07-23T02:32:11.571Z,100281.77
2018-07-23T02:34:41.696Z,100271.04
2018-07-23T02:37:11.512Z,100284.14
2018-07-23T02:39:41.473Z,100278.70
2018-07-23T02:42:11.476Z,100278.38
2018-07-23T02:44:41.630Z,100275.84
2018-07-23T02:47:11.602Z,100277.56
2018-07-23T02:49:41.778Z,100274.59
2018-07-23T02:52:11.724Z,100279.33
2018-07-23T02:54:41.713Z,100275.50
2018-07-23T02:57:11.809Z,100279.32
2018-07-23T02:59:41.823Z,100271.13
2018-07-23T03:02:12.238Z,100267.30
2018-07-23T03:04:42.196Z,100277.23
2018-07-23T03:07:12.351Z,100272.48
2018-07-23T03:09:42.429Z,100269.88
2018-07-23T03:12:12.487Z,100272.55
2018-07-23T03:14:42.431Z,100262.67
2018-07-23T03:17:12.658Z,100261.20
2018-07-23T03:19:42.985Z,100252.78
2018-07-23T03:22:12.998Z,100240.28
2018-07-23T03:24:43.357Z,100221.34
2018-07-23T03:27:13.507Z,100222.14
2018-07-23T03:29:43.497Z,100222.80
2018-07-23T03:32:13.611Z,100218.56
2018-07-23T03:34:43.698Z,100207.34
2018-07-23T03:37:13.746Z,100210.89
2018-07-23T03:39:43.544Z,100210.18
2018-07-23T03:42:13.400Z,100206.37
2018-07-23T03:44:43.352Z,100212.94
2018-07-23T03:47:13.579Z,100216.20
2018-07-23T03:49:43.642Z,100218.84
2018-07-23T03:52:13.688Z,100222.33
2018-07-23T03:54:44.563Z,100230.37
2018-07-23T03:57:14.854Z,100227.09
2018-07-23T03:59:44.782Z,100230.34
2018-07-23T04:02:14.881Z,100225.94
2018-07-23T04:04:44.855Z,100230.11
2018-07-23T04:07:15.041Z,100225.88
2018-07-23T04:09:45.367Z,100239.00
2018-07-23T04:12:15.426Z,100222.25
2018-07-23T04:14:45.419Z,100199.19
2018-07-23T04:17:15.650Z,100203.55
2018-07-23T04:19:45.769Z,100203.99
2018-07-23T04:22:15.798Z,100180.96
2018-07-23T04:24:45.957Z,100185.77
2018-07-23T04:27:16.025Z,100181.56
2018-07-23T04:29:45.916Z,100173.41
2018-07-23T04:32:15.837Z,100175.20
2018-07-23T04:34:45.905Z,100167.35
2018-07-23T04:37:15.666Z,100169.39
2018-07-23T04:39:45.380Z,100178.95
2018-07-23T04:42:15.525Z,100171.59
2018-07-23T04:44:45.380Z,100166.81
2018-07-23T04:47:15.619Z,100150.78
2018-07-23T04:49:45.635Z,100153.70
2018-07-23T04:52:15.802Z,100147.23
2018-07-23T04:54:45.673Z,100118.14
2018-07-23T04:57:15.653Z,100101.37
2018-07-23T04:59:45.582Z,100097.02
2018-07-23T05:02:16.027Z,100112.97
2018-07-23T05:04:45.970Z,100124.13
2018-07-23T05:07:16.151Z,100118.77
2018-07-23T05:09:46.149Z,100111.27
2018-07-23T05:12:16.198Z,100124.36
2018-07-23T05:14:46.173Z,100146.84
2018-07-23T05:17:16.115Z,100151.47
2018-07-23T05:19:46.394Z,100157.06
2018-07-23T05:22:16.577Z,100162.31
2018-07-23T05:24:46.602Z,100163.59
2018-07-23T05:27:16.725Z,100191.05
2018-07-23T05:29:47.146Z,100201.83
2018-07-23T05:32:17.149Z,100209.08
2018-07-23T05:34:47.767Z,100215.88
2018-07-23T05:37:17.605Z,100208.91
2018-07-23T05:39:47.356Z,100210.47
2018-07-23T05:42:17.381Z,100204.53
2018-07-23T05:44:47.406Z,100213.45
2018-07-23T05:47:17.470Z,100214.95
2018-07-23T05:49:47.461Z,100218.16
2018-07-23T05:52:17.698Z,100214.64
2018-07-23T05:54:47.623Z,100232.90
2018-07-23T05:57:18.018Z,100240.25
2018-07-23T05:59:48.064Z,100248.22
2018-07-23T06:02:18.164Z,100252.38
2018-07-23T06:04:48.249Z,100253.45
2018-07-23T06:07:18.182Z,100259.50
2018-07-23T06:09:48.238Z,100258.66
2018-07-23T06:12:18.322Z,100260.27
2018-07-23T06:14:48.441Z,100261.11
2018-07-23T06:17:18.696Z,100241.45
2018-07-23T06:19:49.570Z,100267.98
2018-07-23T06:22:19.605Z,100271.69
2018-07-23T06:24:49.716Z,100278.89
2018-07-23T06:27:20.044Z,100274.87
2018-07-23T06:29:50.152Z,100277.82
2018-07-23T06:32:20.357Z,100276.78
2018-07-23T06:34:50.433Z,100259.59
2018-07-23T06:37:20.272Z,100264.48
2018-07-23T06:39:50.147Z,100250.64
2018-07-23T06:42:20.177Z,100247.03
2018-07-23T06:44:50.513Z,100245.59
2018-07-23T06:47:20.767Z,100259.81
2018-07-23T06:49:50.986Z,100255.48
2018-07-23T06:52:21.429Z,100259.84
2018-07-23T06:54:51.386Z,100261.27
2018-07-23T06:57:21.539Z,100260.35
2018-07-23T06:59:51.581Z,100256.77
2018-07-23T07:02:21.988Z,100250.95
2018-07-23T07:04:51.981Z,100252.91
2018-07-23T07:07:22.105Z,100265.76
2018-07-23T07:09:52.392Z,100258.18
2018-07-23T07:12:22.540Z,100264.28
2018-07-23T07:14:52.570Z,100265.31
2018-07-23T07:17:22.720Z,100268.52
2018-07-23T07:19:53.399Z,100270.46
2018-07-23T07:22:23.879Z,100263.97
2018-07-23T07:24:53.724Z,100264.92
2018-07-23T07:27:24.105Z,100265.38
2018-07-23T07:29:54.125Z,100261.57
2018-07-23T07:32:24.281Z,100273.09
2018-07-23T07:34:54.327Z,100263.56
2018-07-23T07:37:24.206Z,100262.81
2018-07-23T07:39:54.023Z,100268.55
2018-07-23T07:42:24.196Z,100274.16
2018-07-23T07:44:54.089Z,100271.45
2018-07-23T07:47:24.152Z,100271.67
2018-07-23T07:49:54.224Z,100262.97
2018-07-23T07:52:24.593Z,100260.56
2018-07-23T07:54:54.623Z,100258.73
2018-07-23T07:57:25.504Z,100248.64
2018-07-23T07:59:55.532Z,100235.97
2018-07-23T08:02:25.722Z,100227.98
2018-07-23T08:04:55.636Z,100221.17
2018-07-23T08:07:25.667Z,100220.98
2018-07-23T08:09:55.774Z,100225.03
2018-07-23T08:12:25.831Z,100212.28
2018-07-23T08:14:55.930Z,100214.26
2018-07-23T08:17:25.909Z,100211.86
2018-07-23T08:19:56.098Z,100203.56
2018-07-23T08:22:26.097Z,100199.97
2018-07-23T08:24:56.460Z,100194.84
2018-07-23T08:27:26.578Z,100198.42
2018-07-23T08:29:56.710Z,100193.43
2018-07-23T08:32:27.199Z,100197.63
2018-07-23T08:34:57.586Z,100197.83
2018-07-23T08:37:27.324Z,100194.33
2018-07-23T08:39:57.217Z,100187.62
2018-07-23T08:42:27.427Z,100188.30
2018-07-23T08:44:57.471Z,100186.88
2018-07-23T08:47:27.902Z,100190.45
2018-07-23T08:49:58.076Z,100185.63
2018-07-23T08:52:28.600Z,100184.38
2018-07-23T08:54:58.502Z,100179.75
2018-07-23T08:57:28.765Z,100187.29
2018-07-23T08:59:58.649Z,100192.09
2018-07-23T09:02:28.828Z,100198.91
2018-07-23T09:04:58.868Z,100188.78
2018-07-23T09:07:29.005Z,100187.62
2018-07-23T09:09:59.169Z,100197.44
2018-07-23T09:12:29.190Z,100187.19
2018-07-23T09:14:59.227Z,100184.52
2018-07-23T09:17:29.338Z,100182.89
2018-07-23T09:19:59.456Z,100186.68
2018-07-23T09:22:29.565Z,100181.19
2018-07-23T09:24:59.604Z,100175.79
2018-07-23T09:27:30.099Z,100179.06
2018-07-23T09:30:00.046Z,100173.42
2018-07-23T09:32:30.124Z,100158.17
2018-07-23T09:35:00.262Z,100153.42
2018-07-23T09:37:29.999Z,100148.03
2018-07-23T09:39:59.929Z,100143.52
2018-07-23T09:42:29.785Z,100128.61
2018-07-23T09:44:59.652Z,100128.02
2018-07-23T09:47:29.636Z,100129.53
2018-07-23T09:49:59.547Z,100117.48
2018-07-23T09:52:30.330Z,100119.30
2018-07-23T09:55:00.255Z,100116.67
2018-07-23T09:57:30.494Z,100084.29
2018-07-23T10:00:00.542Z,100110.77
2018-07-23T10:02:30.745Z,100098.72
2018-07-23T10:05:00.845Z,100100.24
2018-07-23T10:07:31.215Z,100094.48
2018-07-23T10:10:01.325Z,100092.41
2018-07-23T10:12:31.617Z,100089.40
2018-07-23T10:15:01.634Z,100094.39
2018-07-23T10:17:31.860Z,100085.73
2018-07-23T10:20:02.034Z,100087.26
2018-07-23T10:22:32.104Z,100077.97
2018-07-23T10:25:02.721Z,100080.77
2018-07-23T10:27:34.937Z,100079.08
2018-07-23T10:30:05.882Z,100081.19
2018-07-23T10:32:36.176Z,100077.78
2018-07-23T10:35:06.328Z,100075.25
2018-07-23T10:37:36.297Z,100075.04
2018-07-23T10:40:06.051Z,100069.26
2018-07-23T10:42:47.297Z,100069.61
2018-07-23T10:45:17.357Z,100071.19
2018-07-23T10:47:47.323Z,100070.03
2018-07-23T10:50:17.210Z,100062.62
2018-07-23T10:52:47.825Z,100064.52
2018-07-23T10:55:17.853Z,100060.18
2018-07-23T10:57:48.147Z,100055.84
2018-07-23T11:00:19.000Z,100049.78
2018-07-23T11:02:49.076Z,100043.28
2018-07-23T11:05:19.025Z,100034.92
2018-07-23T11:07:49.123Z,100031.91
2018-07-23T11:10:19.007Z,100034.53
2018-07-23T11:12:49.327Z,100032.36
2018-07-23T11:15:19.457Z,100031.95
2018-07-23T11:17:49.420Z,100031.37
2018-07-23T11:20:19.843Z,100029.75
2018-07-23T11:22:49.758Z,100025.50
2018-07-23T11:25:38.977Z,100025.70
2018-07-23T11:27:49.912Z,100017.13
2018-07-23T11:30:20.028Z,100005.93
2018-07-23T11:32:50.022Z,100001.75
2018-07-23T11:35:20.246Z,100000.53
2018-07-23T11:37:50.112Z,99998.38
2018-07-23T11:40:20.296Z,99996.42
2018-07-23T11:42:50.296Z,100006.54
2018-07-23T11:45:20.462Z,100002.78
2018-07-23T11:47:50.520Z,100010.75
2018-07-23T11:50:20.604Z,100001.17
2018-07-23T11:52:50.744Z,99997.91
2018-07-23T11:55:20.880Z,99985.67
2018-07-23T11:57:50.912Z,99984.21
2018-07-23T12:00:21.590Z,99984.17
2018-07-23T12:02:51.634Z,99971.63
2018-07-23T12:05:21.701Z,99962.53
2018-07-23T12:07:51.661Z,99961.10
2018-07-23T12:10:22.065Z,99953.19
2018-07-23T12:12:52.112Z,99952.95
2018-07-23T12:15:22.719Z,99954.49
2018-07-23T12:17:53.177Z,99952.25
2018-07-23T12:20:23.564Z,99946.23
2018-07-23T12:22:53.763Z,99959.88
2018-07-23T12:25:23.723Z,99958.20
2018-07-23T12:27:55.216Z,99960.42
2018-07-23T12:30:25.152Z,99960.14
2018-07-23T12:32:55.344Z,99955.51
2018-07-23T12:35:25.363Z,99954.09
2018-07-23T12:37:55.693Z,99928.18
2018-07-23T12:40:25.761Z,99943.19
2018-07-23T12:42:55.855Z,99941.02
2018-07-23T12:45:26.035Z,99935.77
2018-07-23T12:47:56.136Z,99948.82
2018-07-23T12:50:26.479Z,99934.77
2018-07-23T12:52:56.625Z,99945.01
2018-07-23T12:55:26.824Z,99950.77
2018-07-23T12:57:56.809Z,99935.17
2018-07-23T13:00:26.980Z,99940.70
2018-07-23T13:02:58.296Z,99936.91
2018-07-23T13:05:32.832Z,99942.39
2018-07-23T13:08:04.238Z,99956.67
2018-07-23T13:10:34.477Z,99970.19
2018-07-23T13:13:04.869Z,99962.67
2018-07-23T13:15:35.101Z,99957.08
2018-07-23T13:18:05.402Z,99959.81
2018-07-23T13:20:35.639Z,99959.70
2018-07-23T13:23:05.921Z,99956.42
2018-07-23T13:25:36.175Z,99940.22
2018-07-23T13:28:06.371Z,99910.95
2018-07-23T13:30:36.579Z,99915.55
2018-07-23T13:33:06.619Z,99926.40
2018-07-23T13:35:36.848Z,99925.87
2018-07-23T13:38:06.996Z,99932.68
2018-07-23T13:40:37.360Z,99970.41
2018-07-23T13:43:08.069Z,100046.55
2018-07-23T13:45:37.999Z,100107.55
2018-07-23T13:48:08.300Z,100036.64
2018-07-23T13:50:38.416Z,100077.30
2018-07-23T13:53:10.307Z,100026.73
2018-07-23T13:55:40.408Z,100062.68
2018-07-23T13:58:10.633Z,100096.99
2018-07-23T14:00:40.750Z,100054.59
2018-07-23T14:03:10.827Z,100010.30
2018-07-23T14:05:40.928Z,100020.31
2018-07-23T14:08:11.242Z,99960.27
2018-07-23T14:10:41.272Z,99956.59
2018-07-23T14:13:11.389Z,99956.03
2018-07-23T14:15:41.676Z,99973.70
2018-07-23T14:18:11.993Z,100004.02
2018-07-23T14:20:42.300Z,100034.95
2018-07-23T14:23:12.347Z,100055.73
2018-07-23T14:25:42.452Z,100071.56
2018-07-23T14:28:12.626Z,100067.28
2018-07-23T14:30:42.901Z,100069.83
2018-07-23T14:33:12.992Z,100094.41
2018-07-23T14:35:43.868Z,100109.98
2018-07-23T14:38:14.662Z,100100.05
2018-07-23T14:40:44.408Z,100090.86
2018-07-23T14:43:14.473Z,100069.78
2018-07-23T14:45:44.538Z,100043.31
2018-07-23T14:48:14.682Z,100035.20
2018-07-23T14:50:44.824Z,100028.79
2018-07-23T14:53:14.931Z,100027.00
2018-07-23T14:55:45.187Z,100033.11
2018-07-23T14:58:15.303Z,100034.20
2018-07-23T15:00:45.859Z,100033.09
2018-07-23T15:03:16.267Z,100031.01
2018-07-23T15:05:46.775Z,100017.94
2018-07-23T15:08:17.160Z,100003.80
2018-07-23T15:10:47.498Z,99994.53
2018-07-23T15:13:17.476Z,99987.43
2018-07-23T15:15:47.983Z,99989.28
2018-07-23T15:18:17.967Z,99987.72
2018-07-23T15:20:48.245Z,99974.84
2018-07-23T15:23:18.317Z,99965.16
2018-07-23T15:25:48.676Z,99950.02
2018-07-23T15:28:18.702Z,99946.98
2018-07-23T15:30:48.895Z,99934.34
2018-07-23T15:33:19.056Z,99925.37
2018-07-23T15:35:49.250Z,99925.16
2018-07-23T15:38:19.063Z,99919.13
2018-07-23T15:40:49.029Z,99909.72
2018-07-23T15:43:19.132Z,99914.67
2018-07-23T15:45:49.553Z,99918.66
2018-07-23T15:48:19.329Z,99929.52
2018-07-23T15:50:49.315Z,99926.22
2018-07-23T15:53:19.207Z,99924.78
2018-07-23T15:55:49.165Z,99926.63
2018-07-23T15:58:19.539Z,99933.88
2018-07-23T16:00:49.590Z,99938.30
2018-07-23T16:03:19.607Z,99941.23
2018-07-23T16:05:49.444Z,99952.06
2018-07-23T16:08:19.483Z,99947.34
2018-07-23T16:10:49.432Z,99949.17
2018-07-23T16:13:19.552Z,99948.66
2018-07-23T16:15:49.523Z,99945.98
2018-07-23T16:18:19.755Z,99949.47
2018-07-23T16:20:49.924Z,99949.77
2018-07-23T16:23:20.099Z,99926.66
2018-07-23T16:25:49.961Z,99964.43
2018-07-23T16:28:20.032Z,99979.42
2018-07-23T16:30:50.027Z,99990.10
2018-07-23T16:33:20.122Z,100007.54
2018-07-23T16:35:50.052Z,100006.70
2018-07-23T16:38:19.972Z,100005.42
2018-07-23T16:40:49.966Z,100012.63
2018-07-23T16:43:20.240Z,100015.23
2018-07-23T16:45:50.303Z,100019.63
2018-07-23T16:48:20.261Z,100030.58
2018-07-23T16:50:50.215Z,100036.25
2018-07-23T16:53:20.058Z,100042.12
2018-07-23T16:55:50.245Z,100052.27
2018-07-23T16:58:20.460Z,100057.52
2018-07-23T17:00:50.591Z,100056.62
2018-07-23T17:03:20.885Z,100067.80
2018-07-23T17:05:51.347Z,100073.16
2018-07-23T17:08:21.564Z,100068.00
2018-07-23T17:10:51.497Z,100055.86
2018-07-23T17:13:21.607Z,100060.21
2018-07-23T17:15:51.573Z,100059.02
2018-07-23T17:18:22.038Z,100074.83
2018-07-23T17:20:52.207Z,100075.28
2018-07-23T17:40:41.832Z,100073.23
2018-07-23T17:43:11.775Z,100067.79
2018-07-23T17:45:41.607Z,100049.78
2018-07-23T17:48:11.438Z,100038.14
2018-07-23T17:50:41.268Z,100043.89
2018-07-23T17:53:11.135Z,100036.33
2018-07-23T17:55:41.143Z,100039.82
2018-07-23T17:58:11.075Z,100028.84
2018-07-23T18:00:42.423Z,100029.20
2018-07-23T18:03:12.418Z,100023.17
2018-07-23T18:05:42.371Z,100017.95
2018-07-23T18:08:12.304Z,100013.24
2018-07-23T18:10:42.677Z,100011.81
2018-07-23T18:13:12.744Z,100019.28
2018-07-23T18:15:42.590Z,100018.20
2018-07-23T18:18:12.743Z,100020.22
2018-07-23T18:20:42.927Z,100018.64
2018-07-23T18:23:13.142Z,100023.06
2018-07-23T18:25:43.086Z,100036.03
2018-07-23T18:28:13.598Z,100045.74
2018-07-23T18:30:46.855Z,100052.48
2018-07-23T18:33:17.008Z,100059.19
2018-07-23T18:35:46.981Z,100062.03
2018-07-23T18:38:17.114Z,100065.77
2018-07-23T18:40:47.359Z,100060.89
2018-07-23T18:43:17.803Z,100053.72
2018-07-23T18:45:47.848Z,100060.16
2018-07-23T18:50:00.109Z,100064.39
2018-07-23T18:52:30.995Z,100051.70
2018-07-23T18:55:01.892Z,100050.94
2018-07-23T18:57:31.937Z,100048.45
2018-07-23T19:00:01.928Z,100050.61
2018-07-23T19:02:32.108Z,100053.75
2018-07-23T19:05:02.622Z,100061.89
2018-07-23T19:07:32.565Z,100075.67
2018-07-23T19:10:02.768Z,100081.27
2018-07-23T19:12:32.802Z,100084.83
2018-07-23T19:15:03.001Z,100080.34
2018-07-23T19:17:32.937Z,100071.77
2018-07-23T19:20:03.152Z,100063.73
2018-07-23T19:22:33.135Z,100069.45
2018-07-23T19:25:03.411Z,100070.56
2018-07-23T19:27:33.379Z,100065.69
2018-07-23T19:30:03.641Z,100067.69
2018-07-23T19:32:33.575Z,100067.30
2018-07-23T19:35:03.683Z,100064.74
2018-07-23T19:37:33.647Z,100075.23
2018-07-23T19:40:03.784Z,100077.50
2018-07-23T19:42:33.745Z,100075.05
2018-07-23T19:45:04.115Z,100066.20
2018-07-23T19:47:34.100Z,100071.73
2018-07-23T19:50:04.376Z,100059.82
2018-07-23T19:52:34.436Z,100058.48
2018-07-23T19:55:04.531Z,100056.48
2018-07-23T19:57:34.531Z,100055.55
2018-07-23T20:00:04.316Z,100050.00
2018-07-23T20:02:34.509Z,100041.18
2018-07-23T20:05:04.453Z,100029.07
2018-07-23T20:07:35.414Z,100028.28
2018-07-23T20:10:05.881Z,100024.91
2018-07-23T20:12:36.026Z,100032.16
2018-07-23T20:15:06.273Z,100030.22
2018-07-23T20:17:36.916Z,100032.08
2018-07-23T20:20:07.770Z,100035.91
2018-07-23T20:22:37.871Z,100033.36
2018-07-23T20:25:07.863Z,100032.59
2018-07-23T20:27:37.884Z,100034.75
2018-07-23T20:30:07.824Z,100033.47
2018-07-23T20:32:38.347Z,100026.07
2018-07-23T20:35:08.386Z,100035.42
2018-07-23T20:37:38.724Z,100034.80
2018-07-23T20:40:10.096Z,100036.84
2018-07-23T20:55:29.132Z,100028.02
2018-07-23T20:57:59.111Z,100029.30
2018-07-23T21:00:28.848Z,100039.70
2018-07-23T21:02:58.952Z,100042.92
2018-07-23T21:05:28.901Z,100041.30
2018-07-23T21:07:59.589Z,100037.34
2018-07-23T21:10:29.764Z,100036.19
2018-07-23T21:13:00.080Z,100042.92
2018-07-23T21:15:30.359Z,100035.73
2018-07-23T21:18:00.360Z,100027.03
2018-07-23T21:20:30.571Z,100030.90
2018-07-23T21:23:01.149Z,100038.29
2018-07-23T21:25:31.071Z,100033.45
2018-07-23T21:28:01.524Z,100032.25
2018-07-23T21:30:31.677Z,100033.26
2018-07-23T21:33:01.875Z,100027.83
2018-07-23T21:35:31.883Z,100029.32
2018-07-23T21:38:01.920Z,100031.13
2018-07-23T21:40:32.271Z,100030.53
2018-07-23T21:43:02.315Z,100023.59
2018-07-23T21:45:32.492Z,100032.92
2018-07-23T21:48:02.411Z,100027.82
2018-07-23T21:50:32.464Z,100028.30
2018-07-23T21:53:02.547Z,100025.25
2018-07-23T21:55:32.611Z,100014.66
2018-07-23T21:58:03.051Z,100014.77
2018-07-23T22:00:33.151Z,100010.60
2018-07-23T22:03:02.938Z,100013.05
2018-07-23T22:05:33.191Z,100010.64
2018-07-23T22:08:03.158Z,99999.44
2018-07-23T22:10:33.401Z,99999.13
2018-07-23T22:13:03.394Z,100002.25
2018-07-23T22:15:33.676Z,100002.91
2018-07-23T22:18:03.851Z,99992.11
2018-07-23T22:20:34.108Z,99994.84
2018-07-23T22:23:04.310Z,99999.67
2018-07-23T22:25:34.843Z,99999.33
2018-07-23T22:28:04.911Z,99991.15
2018-07-23T22:30:35.068Z,99986.05
2018-07-23T22:33:05.017Z,99983.17
2018-07-23T22:35:35.037Z,99981.49
2018-07-23T22:38:05.164Z,99977.53
2018-07-23T22:40:35.290Z,99978.34
2018-07-23T22:43:05.247Z,99981.34
2018-07-23T22:45:35.349Z,99976.06
2018-07-23T22:48:05.652Z,99971.03
2018-07-23T22:50:35.555Z,99976.86
2018-07-23T22:53:05.737Z,99966.48
2018-07-23T22:55:35.983Z,99967.06
2018-07-23T22:58:06.303Z,99960.48
2018-07-23T23:00:36.193Z,99958.91
2018-07-23T23:03:06.270Z,99952.72
2018-07-23T23:05:36.375Z,99950.81
2018-07-23T23:08:06.462Z,99944.00
2018-07-23T23:10:36.555Z,99943.33
2018-07-23T23:13:06.852Z,99941.34
2018-07-23T23:15:36.924Z,99941.83
2018-07-23T23:18:06.904Z,99934.69
2018-07-23T23:20:37.508Z,99928.53
2018-07-23T23:23:08.743Z,99929.70
2018-07-23T23:25:38.813Z,99928.02
2018-07-23T23:28:08.887Z,99919.59
2018-07-23T23:30:39.160Z,99915.77
2018-07-23T23:33:09.157Z,99915.45
2018-07-23T23:35:40.424Z,99917.00
2018-07-23T23:38:10.687Z,99918.53
2018-07-23T23:40:40.860Z,99914.84
2018-07-23T23:43:11.008Z,99906.83
2018-07-23T23:45:41.366Z,99900.85
2018-07-23T23:48:11.416Z,99899.36
2018-07-23T23:50:41.616Z,99900.88
2018-07-23T23:53:11.661Z,99893.28
2018-07-23T23:55:43.054Z,99887.33
2018-07-23T23:58:13.126Z,99887.44
